Time;durP1;ratioP1;P1;durP2;ratioP2;P2;SDS_P1;SDS_P2;PMS_P1;PMS_P2;Temp;Humidity;BMP_temperature;BMP_pressure;BME280_temperature;BME280_humidity;BME280_pressure;Samples;Min_cycle;Max_cycle;Signal;HPM_P1;HPM_P2
2023/11/04 00:01:00;;;;;;;3.72;1.52;;;;;;;9.21;nan;97814.41;5034410;27;97136;-83
2023/11/04 00:03:26;;;;;;;3.10;1.75;;;;;;;9.19;nan;97821.56;5037908;27;97270;-82
2023/11/04 00:05:52;;;;;;;3.75;1.70;;;;;;;8.83;nan;97765.50;5026062;27;100906;-83
2023/11/04 00:08:17;;;;;;;2.72;1.70;;;;;;;9.19;nan;97810.22;5035190;27;101346;-82
2023/11/04 00:10:43;;;;;;;2.95;1.52;;;;;;;9.11;nan;97794.22;5033661;27;96980;-83
2023/11/04 00:13:09;;;;;;;2.35;1.50;;;;;;;9.22;nan;97831.81;5046430;27;96828;-83
2023/11/04 00:15:35;;;;;;;2.30;1.58;;;;;;;9.34;nan;97835.38;5046328;27;101039;-82
2023/11/04 00:18:00;;;;;;;2.85;1.48;;;;;;;9.26;nan;97843.75;5062233;27;97286;-83
2023/11/04 00:20:26;;;;;;;2.20;1.35;;;;;;;9.35;nan;97847.50;5038644;27;97114;-83
2023/11/04 00:22:55;;;;;;;4.93;1.83;;;;;;;9.42;nan;97850.53;5074934;27;96631;-83
2023/11/04 00:25:20;;;;;;;3.78;1.50;;;;;;;9.42;nan;97842.69;5036155;27;100794;-83
2023/11/04 00:27:46;;;;;;;1.55;0.98;;;;;;;9.49;nan;97855.28;5013488;27;101155;-83
2023/11/04 00:30:13;;;;;;;1.45;1.13;;;;;;;9.45;nan;97851.19;5055118;27;96884;-81
2023/11/04 00:32:39;;;;;;;2.65;1.52;;;;;;;9.46;nan;97841.56;5044413;27;96779;-82
2023/11/04 00:35:05;;;;;;;2.30;1.20;;;;;;;9.50;nan;97850.84;5056722;27;98190;-83
2023/11/04 00:37:31;;;;;;;1.52;1.00;;;;;;;9.53;nan;97859.34;5074362;27;97884;-81
2023/11/04 00:39:56;;;;;;;1.98;1.13;;;;;;;9.56;nan;97858.28;5035938;27;96821;-82
2023/11/04 00:42:22;;;;;;;2.67;1.38;;;;;;;9.53;nan;97861.13;5037484;27;96785;-82
2023/11/04 00:44:48;;;;;;;2.05;1.05;;;;;;;9.60;nan;97870.25;5056038;27;97932;-83
2023/11/04 00:47:13;;;;;;;2.28;1.10;;;;;;;9.61;nan;97871.09;5034114;27;101184;-82
2023/11/04 00:49:39;;;;;;;3.63;1.23;;;;;;;9.58;nan;97872.13;5031549;27;97063;-83
2023/11/04 00:52:05;;;;;;;1.45;1.10;;;;;;;9.42;nan;97843.53;5038118;27;96891;-83
2023/11/04 00:54:30;;;;;;;4.03;1.50;;;;;;;9.60;nan;97880.72;5035280;27;99888;-83
2023/11/04 00:56:56;;;;;;;2.25;1.25;;;;;;;9.74;nan;97883.25;5047650;27;97867;-82
2023/11/04 00:59:21;;;;;;;1.92;1.15;;;;;;;9.79;nan;97874.22;5039043;27;96777;-83
2023/11/04 01:01:47;;;;;;;1.58;1.13;;;;;;;9.84;nan;97883.44;5056445;27;96761;-82
2023/11/04 01:04:13;;;;;;;2.15;1.05;;;;;;;9.89;nan;97875.22;5035974;27;99954;-82
2023/11/04 01:06:38;;;;;;;2.35;1.20;;;;;;;9.82;nan;97880.06;5024262;27;101373;-83
2023/11/04 01:09:04;;;;;;;1.55;0.93;;;;;;;9.75;nan;97884.91;5048993;27;96711;-83
2023/11/04 01:11:30;;;;;;;1.67;1.10;;;;;;;9.75;nan;97869.19;5056735;27;96805;-83
2023/11/04 01:13:55;;;;;;;2.30;1.40;;;;;;;9.87;nan;97887.63;5055879;27;97552;-82
2023/11/04 01:16:21;;;;;;;3.47;1.30;;;;;;;9.84;nan;97888.66;5055938;27;98351;-82
2023/11/04 01:18:47;;;;;;;3.22;1.00;;;;;;;9.80;nan;97892.44;5034048;27;97075;-82
2023/11/04 01:21:13;;;;;;;2.92;1.00;;;;;;;9.79;nan;97890.75;5034592;27;97158;-82
2023/11/04 01:23:38;;;;;;;2.20;1.30;;;;;;;9.79;nan;97900.41;5032191;27;97992;-83
2023/11/04 01:26:04;;;;;;;1.45;1.00;;;;;;;9.80;nan;97902.06;5033873;27;101678;-82
2023/11/04 01:28:29;;;;;;;1.92;1.13;;;;;;;9.71;nan;97906.16;5049956;27;97976;-82
2023/11/04 01:30:55;;;;;;;1.13;0.93;;;;;;;9.70;nan;97904.50;5054293;27;96780;-83
2023/11/04 01:33:20;;;;;;;1.20;1.00;;;;;;;9.65;nan;97911.81;5035859;27;99353;-82
2023/11/04 01:35:46;;;;;;;2.22;1.23;;;;;;;9.72;nan;97911.31;5038545;27;100953;-83
2023/11/04 01:38:11;;;;;;;1.83;1.20;;;;;;;9.76;nan;97917.19;5038577;27;98155;-82
2023/11/04 01:40:37;;;;;;;2.20;1.05;;;;;;;9.74;nan;97905.94;5056080;27;96782;-82
2023/11/04 01:43:02;;;;;;;2.30;1.20;;;;;;;9.64;nan;97907.53;5073900;27;96980;-83
2023/11/04 01:45:28;;;;;;;2.40;1.25;;;;;;;9.67;nan;97908.16;5034612;27;100462;-82
2023/11/04 01:47:54;;;;;;;2.08;1.20;;;;;;;9.70;nan;97907.13;5042749;27;97229;-82
2023/11/04 01:50:20;;;;;;;1.88;1.17;;;;;;;9.70;nan;97912.34;5033692;27;97322;-82
2023/11/04 01:52:46;;;;;;;1.63;1.20;;;;;;;9.80;nan;97936.13;5044330;27;98021;-83
2023/11/04 01:55:13;;;;;;;3.55;1.42;;;;;;;9.76;nan;97932.91;5052002;27;97835;-81
2023/11/04 01:57:40;;;;;;;1.65;1.35;;;;;;;9.73;nan;97927.88;5035187;27;96705;-83
2023/11/04 02:00:06;;;;;;;1.90;1.08;;;;;;;9.62;nan;97907.63;5034771;27;97144;-82
2023/11/04 02:02:38;;;;;;;1.88;1.25;;;;;;;9.88;nan;97939.06;5038519;27;98057;-83
2023/11/04 02:05:04;;;;;;;1.88;1.50;;;;;;;9.96;nan;97942.00;5054916;27;98338;-83
2023/11/04 02:07:30;;;;;;;2.85;1.85;;;;;;;9.96;nan;97944.63;5038736;27;96761;-83
2023/11/04 02:09:55;;;;;;;2.28;1.52;;;;;;;9.79;nan;97914.34;5055387;27;97275;-83
2023/11/04 02:12:21;;;;;;;2.88;1.60;;;;;;;9.87;nan;97940.88;5034945;27;101223;-82
2023/11/04 02:14:50;;;;;;;4.07;1.83;;;;;;;9.84;nan;97950.72;5019631;27;100875;-82
2023/11/04 02:17:17;;;;;;;2.85;1.55;;;;;;;9.82;nan;97948.19;5041452;27;97154;-83
2023/11/04 02:19:42;;;;;;;1.30;1.17;;;;;;;9.77;nan;97937.19;5040821;27;97243;-82
2023/11/04 02:22:08;;;;;;;2.25;1.80;;;;;;;9.87;nan;97953.97;5041586;27;101480;-83
2023/11/04 02:24:33;;;;;;;3.20;1.77;;;;;;;9.90;nan;97945.06;5058073;27;97913;-83
2023/11/04 02:26:59;;;;;;;3.60;1.77;;;;;;;9.68;nan;97912.44;5055406;27;96688;-83
2023/11/04 02:29:24;;;;;;;3.92;1.75;;;;;;;9.89;nan;97944.22;5033417;27;96886;-83
2023/11/04 02:31:50;;;;;;;4.88;2.20;;;;;;;9.94;nan;97957.81;5020286;27;101330;-83
2023/11/04 02:34:15;;;;;;;4.95;2.05;;;;;;;9.88;nan;97944.31;5021048;27;100891;-83
2023/11/04 02:36:41;;;;;;;7.45;2.60;;;;;;;9.94;nan;97965.69;5033522;27;97211;-82
2023/11/04 02:39:08;;;;;;;3.05;2.10;;;;;;;10.07;nan;97967.50;5041894;27;97342;-82
2023/11/04 02:41:34;;;;;;;4.90;2.42;;;;;;;9.92;nan;97970.22;5070466;27;98515;-82
2023/11/04 02:44:00;;;;;;;2.30;1.92;;;;;;;10.04;nan;97970.31;5026429;27;98610;-83
2023/11/04 02:46:25;;;;;;;3.67;2.83;;;;;;;9.99;nan;97962.75;5050804;27;96838;-82
2023/11/04 02:48:51;;;;;;;3.30;2.15;;;;;;;10.12;nan;97971.47;5057250;27;97353;-83
2023/11/04 02:51:16;;;;;;;6.50;2.67;;;;;;;10.14;nan;97979.22;5037239;27;100944;-83
2023/11/04 02:53:42;;;;;;;11.07;2.53;;;;;;;10.07;nan;97965.69;5052716;27;97751;-82
2023/11/04 02:56:08;;;;;;;3.70;2.25;;;;;;;10.17;nan;97968.50;5036581;27;96730;-83
2023/11/04 02:58:33;;;;;;;5.95;2.20;;;;;;;10.14;nan;97994.94;5037513;27;97004;-82
2023/11/04 03:00:59;;;;;;;2.55;1.88;;;;;;;9.92;nan;97943.19;5033568;27;101186;-84
2023/11/04 03:03:25;;;;;;;2.55;1.80;;;;;;;10.07;nan;97985.84;5037984;27;98420;-83
2023/11/04 03:05:50;;;;;;;3.53;2.40;;;;;;;10.15;nan;97992.22;5052802;27;98167;-85
2023/11/04 03:08:16;;;;;;;5.13;2.30;;;;;;;10.07;nan;97986.66;5031186;27;97169;-84
2023/11/04 03:10:42;;;;;;;2.78;1.90;;;;;;;10.10;nan;97985.63;5054027;27;97476;-82
2023/11/04 03:13:07;;;;;;;2.60;2.03;;;;;;;9.94;nan;97959.63;5057910;27;97965;-83
2023/11/04 03:15:33;;;;;;;3.75;2.40;;;;;;;10.16;nan;98006.16;5058635;27;96695;-81
2023/11/04 03:17:58;;;;;;;4.00;1.92;;;;;;;10.10;nan;97991.69;5033666;27;97287;-83
2023/11/04 03:20:24;;;;;;;3.92;2.45;;;;;;;9.80;nan;97954.47;5039284;27;98647;-83
2023/11/04 03:22:49;;;;;;;3.10;1.90;;;;;;;10.07;nan;98002.41;5034516;27;101509;-83
2023/11/04 03:25:15;;;;;;;3.28;2.22;;;;;;;9.94;nan;98002.38;5048350;27;97146;-83
2023/11/04 03:27:41;;;;;;;3.65;2.00;;;;;;;9.65;nan;97977.31;5057536;27;97174;-83
2023/11/04 03:30:08;;;;;;;4.07;1.90;;;;;;;9.84;nan;98005.75;5037376;27;98124;-83
2023/11/04 03:32:33;;;;;;;2.08;1.70;;;;;;;9.77;nan;97997.44;5069290;27;97609;-81
2023/11/04 03:34:59;;;;;;;4.43;1.90;;;;;;;9.60;nan;97968.91;5055845;27;97018;-83
2023/11/04 03:37:24;;;;;;;3.78;1.60;;;;;;;9.75;nan;98007.22;5037405;27;97081;-83
2023/11/04 03:39:52;;;;;;;2.83;1.92;;;;;;;9.60;nan;97998.59;5019576;27;100983;-80
2023/11/04 03:42:18;;;;;;;8.27;1.92;;;;;;;9.74;nan;98006.38;5040575;27;101183;-83
2023/11/04 03:44:43;;;;;;;2.45;1.48;;;;;;;9.72;nan;98015.28;5057580;27;96775;-83
2023/11/04 03:47:09;;;;;;;3.67;1.35;;;;;;;9.74;nan;98009.00;5039218;27;97075;-83
2023/11/04 03:49:35;;;;;;;2.40;1.40;;;;;;;9.67;nan;98005.09;5035498;27;100858;-83
2023/11/04 03:52:00;;;;;;;1.33;1.00;;;;;;;9.66;nan;98000.81;5018781;27;100362;-83
2023/11/04 03:54:26;;;;;;;2.25;1.30;;;;;;;9.73;nan;98019.56;5034839;27;97158;-83
2023/11/04 03:56:51;;;;;;;2.13;1.40;;;;;;;9.79;nan;98020.94;5054088;27;97406;-83
2023/11/04 03:59:17;;;;;;;5.03;1.70;;;;;;;9.63;nan;97980.06;5074756;27;97981;-82
2023/11/04 04:01:42;;;;;;;3.47;1.67;;;;;;;9.75;nan;98007.22;5036449;27;100792;-83
2023/11/04 04:04:08;;;;;;;3.90;1.80;;;;;;;9.78;nan;98011.41;5027010;27;97368;-83
2023/11/04 04:06:34;;;;;;;6.50;3.20;;;;;;;9.81;nan;98013.81;5043712;27;96816;-83
2023/11/04 04:09:00;;;;;;;8.00;3.88;;;;;;;9.70;nan;98002.25;5027923;27;101436;-83
2023/11/04 04:11:26;;;;;;;7.63;3.58;;;;;;;9.82;nan;98015.47;5053844;27;97323;-83
2023/11/04 04:13:51;;;;;;;9.73;3.65;;;;;;;9.82;nan;98010.25;5019696;27;97469;-82
2023/11/04 04:16:17;;;;;;;7.68;3.70;;;;;;;9.79;nan;98013.06;5036706;27;97052;-83
2023/11/04 04:18:42;;;;;;;7.30;3.58;;;;;;;9.73;nan;98012.53;5051803;27;100617;-82
2023/11/04 04:21:08;;;;;;;6.45;3.30;;;;;;;9.86;nan;98014.31;5015981;27;101587;-83
2023/11/04 04:23:33;;;;;;;5.90;2.80;;;;;;;9.74;nan;98011.63;5023113;27;96852;-83
2023/11/04 04:25:59;;;;;;;5.72;2.97;;;;;;;9.80;nan;98033.91;5049690;27;96740;-83
2023/11/04 04:28:25;;;;;;;5.72;2.88;;;;;;;9.80;nan;98020.81;5035655;27;98856;-83
2023/11/04 04:30:50;;;;;;;5.90;2.22;;;;;;;9.73;nan;98030.03;5053644;27;97438;-83
2023/11/04 04:33:16;;;;;;;3.50;1.58;;;;;;;9.73;nan;98035.28;5054565;27;97255;-83
2023/11/04 04:35:42;;;;;;;3.47;1.75;;;;;;;9.59;nan;98009.16;5027452;27;96791;-82
2023/11/04 04:38:08;;;;;;;2.65;1.60;;;;;;;9.66;nan;98031.41;5046623;27;97468;-81
2023/11/04 04:40:33;;;;;;;3.83;1.50;;;;;;;9.65;nan;98043.63;5029085;27;101003;-83
2023/11/04 04:42:59;;;;;;;4.68;2.17;;;;;;;9.52;nan;98025.28;5024590;27;97061;-82
2023/11/04 04:45:25;;;;;;;5.25;2.20;;;;;;;9.62;nan;98046.47;5034130;27;97101;-82
2023/11/04 04:47:50;;;;;;;2.92;2.05;;;;;;;9.58;nan;98052.03;5051759;27;97391;-82
2023/11/04 04:50:16;;;;;;;3.97;2.03;;;;;;;9.53;nan;98057.56;5034276;27;97918;-83
2023/11/04 04:52:41;;;;;;;3.42;2.28;;;;;;;9.29;nan;98044.28;5053105;27;96729;-83
2023/11/04 04:55:07;;;;;;;6.00;2.50;;;;;;;9.40;nan;98060.13;5053807;27;96743;-82
2023/11/04 04:57:35;;;;;;;4.03;2.50;;;;;;;9.29;nan;98062.59;5031984;27;97404;-83
2023/11/04 05:00:01;;;;;;;5.03;2.33;;;;;;;9.24;nan;98072.53;5015120;27;101180;-83
2023/11/04 05:02:27;;;;;;;4.90;1.80;;;;;;;9.10;nan;98062.09;5052859;27;96801;-82
2023/11/04 05:04:53;;;;;;;3.13;1.95;;;;;;;9.06;nan;98074.53;5027245;27;96855;-83
2023/11/04 05:07:18;;;;;;;2.58;1.92;;;;;;;9.06;nan;98080.63;5013323;27;101563;-83
2023/11/04 05:09:44;;;;;;;6.68;2.38;;;;;;;9.12;nan;98078.56;5052154;27;98028;-83
2023/11/04 05:12:09;;;;;;;4.68;2.13;;;;;;;9.06;nan;98072.75;5053244;27;96685;-83
2023/11/04 05:14:34;;;;;;;5.43;2.92;;;;;;;9.08;nan;98080.53;5053063;27;96701;-83
2023/11/04 05:17:00;;;;;;;7.75;2.42;;;;;;;9.00;nan;98083.63;5035388;27;101007;-83
2023/11/04 05:19:25;;;;;;;5.35;2.13;;;;;;;9.09;nan;98089.22;5048746;27;97894;-83
2023/11/04 05:21:51;;;;;;;9.38;3.33;;;;;;;8.96;nan;98084.75;5026292;27;97295;-82
2023/11/04 05:24:16;;;;;;;5.50;2.17;;;;;;;8.85;nan;98079.34;5035234;27;97050;-83
2023/11/04 05:26:42;;;;;;;6.15;2.47;;;;;;;8.83;nan;98089.91;5052645;27;97570;-82
2023/11/04 05:29:11;;;;;;;9.25;2.60;;;;;;;8.81;nan;98101.41;5029673;27;101875;-83
2023/11/04 05:31:36;;;;;;;6.47;2.55;;;;;;;8.76;nan;98103.47;5032683;27;97262;-83
2023/11/04 05:34:02;;;;;;;3.25;2.40;;;;;;;8.73;nan;98096.66;5048737;27;97294;-83
2023/11/04 05:36:27;;;;;;;6.03;2.67;;;;;;;8.68;nan;98096.09;5047349;27;97911;-83
2023/11/04 05:38:53;;;;;;;6.30;3.00;;;;;;;8.74;nan;98103.56;5021946;27;97919;-83
2023/11/04 05:41:19;;;;;;;6.45;2.97;;;;;;;8.41;nan;98053.31;5045299;27;96919;-83
2023/11/04 05:43:45;;;;;;;5.00;2.80;;;;;;;8.72;nan;98110.66;5052562;27;96783;-83
2023/11/04 05:46:11;;;;;;;7.80;2.95;;;;;;;8.69;nan;98102.16;5052701;27;98640;-83
2023/11/04 05:48:37;;;;;;;5.68;2.70;;;;;;;8.64;nan;98104.22;5021513;27;101333;-83
2023/11/04 05:51:04;;;;;;;12.35;3.88;;;;;;;8.67;nan;98110.13;5035850;27;97061;-83
2023/11/04 05:53:30;;;;;;;8.57;3.33;;;;;;;8.80;nan;98115.44;5050394;27;97032;-84
2023/11/04 05:55:56;;;;;;;5.03;3.42;;;;;;;8.78;nan;98120.75;5052666;27;97389;-83
2023/11/04 05:58:22;;;;;;;6.45;2.63;;;;;;;8.75;nan;98122.72;5020200;27;97343;-83
2023/11/04 06:00:48;;;;;;;4.97;2.80;;;;;;;8.68;nan;98124.88;5033174;27;97408;-83
2023/11/04 06:03:13;;;;;;;7.50;3.05;;;;;;;8.66;nan;98111.03;5026655;27;97281;-83
2023/11/04 06:05:39;;;;;;;4.88;2.70;;;;;;;8.65;nan;98132.06;5028352;27;100799;-83
2023/11/04 06:08:04;;;;;;;7.43;2.70;;;;;;;8.66;nan;98137.19;5055989;27;97314;-83
2023/11/04 06:10:30;;;;;;;7.55;3.65;;;;;;;8.58;nan;98119.38;5057530;27;96656;-83
2023/11/04 06:12:55;;;;;;;5.28;2.70;;;;;;;8.61;nan;98113.13;5055646;27;97631;-84
2023/11/04 06:15:21;;;;;;;6.70;2.83;;;;;;;8.72;nan;98128.13;5039089;27;98002;-83
2023/11/04 06:17:46;;;;;;;5.57;2.90;;;;;;;8.58;nan;98100.19;5054193;27;97553;-84
2023/11/04 06:20:12;;;;;;;6.55;2.70;;;;;;;8.57;nan;98101.13;5036957;27;97131;-83
2023/11/04 06:22:37;;;;;;;8.85;3.03;;;;;;;8.88;nan;98135.88;5050426;27;96874;-84
2023/11/04 06:25:04;;;;;;;5.78;3.22;;;;;;;9.03;nan;98142.78;5021873;27;100926;-83
2023/11/04 06:27:29;;;;;;;6.30;2.97;;;;;;;8.84;nan;98109.91;5031772;27;98243;-83
2023/11/04 06:29:55;;;;;;;6.15;2.80;;;;;;;8.95;nan;98132.78;5051884;27;97046;-84
2023/11/04 06:32:20;;;;;;;6.88;2.97;;;;;;;9.01;nan;98136.78;5047483;27;96786;-84
2023/11/04 06:34:46;;;;;;;10.50;3.05;;;;;;;9.06;nan;98132.97;5036835;27;101810;-84
2023/11/04 06:37:12;;;;;;;8.73;3.03;;;;;;;9.24;nan;98151.06;5029614;27;97925;-83
2023/11/04 06:39:37;;;;;;;6.28;2.58;;;;;;;9.10;nan;98133.59;5048845;27;96763;-85
2023/11/04 06:42:03;;;;;;;9.38;3.60;;;;;;;9.17;nan;98162.88;5028514;27;96726;-85
2023/11/04 06:44:29;;;;;;;8.45;2.88;;;;;;;9.04;nan;98134.00;5018129;27;101128;-84
2023/11/04 06:46:54;;;;;;;6.18;2.65;;;;;;;9.24;nan;98172.00;5044420;27;100744;-85
2023/11/04 06:49:20;;;;;;;8.52;3.13;;;;;;;9.15;nan;98170.81;5027801;27;96785;-85
2023/11/04 06:51:46;;;;;;;7.50;3.25;;;;;;;9.18;nan;98175.00;5032959;27;96830;-84
2023/11/04 06:54:11;;;;;;;14.13;3.03;;;;;;;9.23;nan;98179.03;5030110;27;101105;-83
2023/11/04 06:56:38;;;;;;;7.20;2.58;;;;;;;9.26;nan;98167.53;5044836;27;97803;-85
2023/11/04 06:59:04;;;;;;;7.40;2.72;;;;;;;9.32;nan;98177.63;5046655;27;97192;-86
2023/11/04 07:01:30;;;;;;;7.55;3.10;;;;;;;9.30;nan;98176.84;5027616;27;96843;-85
2023/11/04 07:03:55;;;;;;;5.90;2.90;;;;;;;9.42;nan;98191.78;5038270;27;97475;-85
2023/11/04 07:06:21;;;;;;;7.93;2.60;;;;;;;9.51;nan;98193.84;5035457;27;100372;-86
2023/11/04 07:08:47;;;;;;;11.65;3.28;;;;;;;9.44;nan;98155.88;5029607;27;97377;-85
2023/11/04 07:11:14;;;;;;;7.03;2.85;;;;;;;9.79;nan;98191.25;5029425;27;97087;-85
2023/11/04 07:13:40;;;;;;;9.27;3.47;;;;;;;10.14;nan;98181.91;5029187;27;98252;-85
2023/11/04 07:16:06;;;;;;;6.55;3.20;;;;;;;10.47;nan;98201.63;5028562;27;97884;-85
2023/11/04 07:18:33;;;;;;;9.35;3.25;;;;;;;10.80;nan;98192.41;5032707;27;96741;-84
2023/11/04 07:21:01;;;;;;;8.98;3.35;;;;;;;11.07;nan;98193.13;5023213;27;97819;-84
2023/11/04 07:23:27;;;;;;;7.35;2.83;;;;;;;11.43;nan;98183.63;5041475;27;98486;-85
2023/11/04 07:25:53;;;;;;;11.57;3.53;;;;;;;11.52;nan;98176.88;5043688;27;101506;-85
2023/11/04 07:28:19;;;;;;;6.85;3.17;;;;;;;11.57;nan;98188.69;5032683;27;97105;-85
2023/11/04 07:30:45;;;;;;;13.82;3.72;;;;;;;11.70;nan;98188.66;5028847;27;96751;-84
2023/11/04 07:33:10;;;;;;;6.85;3.00;;;;;;;12.10;nan;98184.94;5034137;27;98233;-84
2023/11/04 07:35:36;;;;;;;10.45;3.20;;;;;;;12.07;nan;98143.94;5024960;27;98136;-85
2023/11/04 07:38:02;;;;;;;5.85;3.25;;;;;;;12.03;nan;98150.38;5012086;27;97279;-85
2023/11/04 07:40:27;;;;;;;16.27;3.45;;;;;;;12.32;nan;98185.00;5011141;27;96802;-85
2023/11/04 07:42:53;;;;;;;8.30;3.22;;;;;;;12.48;nan;98178.59;5031090;27;101083;-84
2023/11/04 07:45:19;;;;;;;10.57;3.88;;;;;;;12.60;nan;98164.53;5026902;27;101046;-85
2023/11/04 07:47:45;;;;;;;7.15;3.35;;;;;;;12.77;nan;98156.16;5028363;27;97259;-81
2023/11/04 07:50:10;;;;;;;6.90;3.33;;;;;;;13.29;nan;98167.94;5031243;27;96881;-84
2023/11/04 07:52:41;;;;;;;8.48;3.35;;;;;;;13.80;nan;98177.03;5030728;27;101675;-86
2023/11/04 07:55:10;;;;;;;10.47;3.43;;;;;;;14.24;nan;98149.63;5031594;27;97352;-83
2023/11/04 07:57:39;;;;;;;9.30;3.00;;;;;;;14.69;nan;98148.56;5014108;27;97493;-85
2023/11/04 08:00:07;;;;;;;7.18;3.42;;;;;;;15.60;nan;98173.25;5009102;27;97348;-82
2023/11/04 08:02:36;;;;;;;6.95;3.63;;;;;;;15.83;nan;98174.72;5031273;27;97457;-82
2023/11/04 08:05:02;;;;;;;8.02;3.17;;;;;;;16.58;nan;98180.28;5028829;27;97992;-82
2023/11/04 08:07:29;;;;;;;5.97;3.00;;;;;;;16.98;nan;98148.25;5001305;27;96726;-81
2023/11/04 08:09:58;;;;;;;9.80;2.90;;;;;;;17.27;nan;98175.63;5031795;27;96880;-81
2023/11/04 08:12:24;;;;;;;4.95;2.30;;;;;;;17.92;nan;98173.75;5024162;27;98465;-82
2023/11/04 08:14:50;;;;;;;4.80;2.50;;;;;;;18.40;nan;98156.56;5035055;27;97506;-82
2023/11/04 08:17:15;;;;;;;6.60;3.03;;;;;;;19.11;nan;98168.88;5022692;27;97404;-82
2023/11/04 08:19:41;;;;;;;8.77;2.78;;;;;;;19.76;nan;98175.47;5020880;27;97110;-81
2023/11/04 08:22:09;;;;;;;6.43;2.67;;;;;;;21.17;nan;98171.59;5043241;27;101484;-81
2023/11/04 08:24:36;;;;;;;7.40;3.28;;;;;;;22.23;nan;98172.97;5064238;27;97761;-81
2023/11/04 08:27:02;;;;;;;7.53;2.75;;;;;;;23.94;nan;98173.00;5034419;27;97391;-82
2023/11/04 08:29:28;;;;;;;6.22;3.05;;;;;;;24.21;nan;98165.22;5034084;27;97231;-83
2023/11/04 08:31:54;;;;;;;4.95;2.50;;;;;;;25.53;nan;98159.16;5034167;27;97447;-83
2023/11/04 08:34:19;;;;;;;6.80;3.47;;;;;;;26.13;nan;98162.91;5030590;27;98550;-83
2023/11/04 08:36:45;;;;;;;5.47;3.05;;;;;;;26.72;nan;98150.53;5052783;27;97264;-85
2023/11/04 08:39:10;;;;;;;10.85;4.22;;;;;;;27.43;nan;98155.19;5034862;27;97161;-84
2023/11/04 08:41:36;;;;;;;15.93;5.10;;;;;;;28.34;nan;98156.78;5052021;27;98539;-84
2023/11/04 08:44:03;;;;;;;7.20;3.70;;;;;;;27.95;nan;98144.38;5033603;27;101263;-83
2023/11/04 08:46:29;;;;;;;9.02;5.00;;;;;;;29.86;nan;98148.22;5034086;27;96854;-84
2023/11/04 08:48:54;;;;;;;6.90;3.47;;;;;;;29.73;nan;98146.53;5008678;27;97847;-84
2023/11/04 08:51:20;;;;;;;8.70;3.70;;;;;;;29.69;nan;98134.50;5051172;27;97590;-84
2023/11/04 08:53:46;;;;;;;8.63;5.13;;;;;;;30.47;nan;98145.50;5051534;27;97357;-84
2023/11/04 08:56:11;;;;;;;8.10;3.85;;;;;;;30.93;nan;98150.16;5033686;27;97446;-79
2023/11/04 08:58:37;;;;;;;5.60;2.30;;;;;;;28.83;nan;98144.38;5061894;27;97029;-78
2023/11/04 09:01:03;;;;;;;3.25;2.05;;;;;;;26.89;nan;98144.75;5032927;27;98192;-74
2023/11/04 09:03:28;;;;;;;0.10;0.10;;;;;;;25.80;nan;98135.91;5051851;27;97299;-74
2023/11/04 09:05:54;;;;;;;0.22;0.22;;;;;;;23.88;nan;98146.97;5051741;27;97426;-81
2023/11/04 09:08:20;;;;;;;0.32;0.32;;;;;;;22.38;nan;98149.78;5029931;27;97175;-77
2023/11/04 09:10:47;;;;;;;1.80;1.70;;;;;;;23.14;nan;98147.06;5050962;27;97467;-76
2023/11/04 09:13:13;;;;;;;0.10;0.10;;;;;;;23.72;nan;98118.56;5060287;27;97698;-76
2023/11/04 09:15:39;;;;;;;0.50;0.50;;;;;;;21.88;nan;98118.25;5070440;27;96733;-78
2023/11/04 09:18:05;;;;;;;0.30;0.30;;;;;;;22.55;nan;98147.81;5028913;27;97271;-78
2023/11/04 09:20:31;;;;;;;0.10;0.10;;;;;;;20.59;nan;98146.06;5033329;27;97651;-77
2023/11/04 09:22:56;;;;;;;0.20;0.20;;;;;;;20.13;nan;98121.78;5051049;27;97471;-77
2023/11/04 09:25:22;;;;;;;1.20;0.70;;;;;;;20.86;nan;98144.06;5037161;27;96762;-77
2023/11/04 09:27:48;;;;;;;0.20;0.20;;;;;;;19.10;nan;98158.38;5019623;27;97388;-76
2023/11/04 09:30:14;;;;;;;0.10;0.10;;;;;;;18.44;nan;98165.91;5036073;27;97682;-76
2023/11/04 09:32:40;;;;;;;0.52;0.45;;;;;;;17.62;nan;98157.13;5035589;27;100464;-78
2023/11/04 09:35:06;;;;;;;0.30;0.30;;;;;;;17.69;nan;98135.34;5035971;27;96803;-76
2023/11/04 09:37:32;;;;;;;0.20;0.20;;;;;;;17.73;nan;98160.56;5045740;27;96893;-76
2023/11/04 09:39:59;;;;;;;0.13;0.13;;;;;;;17.40;nan;98117.78;5031097;27;97416;-77
2023/11/04 09:42:27;;;;;;;0.10;0.10;;;;;;;17.74;nan;98120.63;5059523;27;97391;-76
2023/11/04 09:44:54;;;;;;;0.05;0.05;;;;;;;18.27;nan;98145.53;5019409;27;96849;-76
2023/11/04 09:47:19;;;;;;;0.00;0.00;;;;;;;18.02;nan;98132.03;5036039;27;97362;-77
2023/11/04 09:49:46;;;;;;;0.10;0.10;;;;;;;17.17;nan;98118.19;5053995;27;97445;-78
2023/11/04 09:52:13;;;;;;;0.00;0.00;;;;;;;17.38;nan;98140.97;5036694;27;97576;-76
2023/11/04 09:54:39;;;;;;;0.10;0.10;;;;;;;17.40;nan;98125.75;5037262;27;96818;-77
2023/11/04 09:57:05;;;;;;;0.13;0.13;;;;;;;17.25;nan;98119.25;5033073;27;96945;-77
2023/11/04 09:59:32;;;;;;;0.10;0.10;;;;;;;17.28;nan;98125.13;5027332;27;101446;-76
2023/11/04 10:01:57;;;;;;;0.52;0.52;;;;;;;17.26;nan;98113.81;5039310;27;97958;-76
2023/11/04 10:04:24;;;;;;;0.00;0.00;;;;;;;17.23;nan;98084.94;5035805;27;97209;-77
2023/11/04 10:06:49;;;;;;;0.08;0.08;;;;;;;16.13;nan;98084.75;5033111;27;97132;-76
2023/11/04 10:09:15;;;;;;;0.13;0.13;;;;;;;15.66;nan;98118.97;5034832;27;97904;-77
2023/11/04 10:11:40;;;;;;;0.10;0.10;;;;;;;15.26;nan;98089.00;5039685;27;97508;-76
2023/11/04 10:14:06;;;;;;;0.10;0.10;;;;;;;15.92;nan;98106.91;5034035;27;97466;-77
2023/11/04 10:16:32;;;;;;;0.50;0.50;;;;;;;14.87;nan;98109.19;5000175;27;97967;-77
2023/11/04 10:18:57;;;;;;;5.47;5.18;;;;;;;15.12;nan;98079.63;5031950;27;101031;-78
2023/11/04 10:21:23;;;;;;;2.83;2.72;;;;;;;15.19;nan;98093.16;5034124;27;98768;-79
2023/11/04 10:23:49;;;;;;;2.75;2.65;;;;;;;15.10;nan;98056.97;5034431;27;97002;-80
2023/11/04 10:26:15;;;;;;;3.25;3.15;;;;;;;15.78;nan;98073.78;5020488;27;96860;-87
2023/11/04 10:28:40;;;;;;;2.92;2.83;;;;;;;15.61;nan;98045.34;5024144;27;99124;-82
2023/11/04 10:31:06;;;;;;;2.33;2.22;;;;;;;15.66;nan;98047.56;5035263;27;98278;-81
2023/11/04 10:33:40;;;;;;;3.20;3.10;;;;;;;15.64;nan;98068.84;5035841;27;98402;-83
2023/11/04 10:36:08;;;;;;;3.05;2.95;;;;;;;15.20;nan;98068.38;5029946;27;96984;-88
2023/11/04 10:38:37;;;;;;;3.00;2.90;;;;;;;15.36;nan;98062.59;5039687;27;98043;-87
2023/11/04 10:41:04;;;;;;;2.90;2.80;;;;;;;15.27;nan;98039.59;5039170;27;97051;-85
2023/11/04 10:43:40;;;;;;;2.80;2.70;;;;;;;14.80;nan;98071.88;5035203;27;97501;-86
2023/11/04 10:46:10;;;;;;;2.45;2.35;;;;;;;14.95;nan;98072.34;5022672;27;97230;-82
2023/11/04 10:48:44;;;;;;;1.90;1.80;;;;;;;14.66;nan;98037.91;5028487;27;99861;-80
2023/11/04 10:51:16;;;;;;;8.68;4.07;;;;;;;14.94;nan;98068.88;5036350;27;97578;-81
2023/11/04 10:54:09;;;;;;;1.90;1.80;;;;;;;14.75;nan;98075.88;5025794;27;97639;-81
2023/11/04 10:56:43;;;;;;;1.80;1.70;;;;;;;14.89;nan;98059.69;5026935;27;96868;-85
2023/11/04 10:59:29;;;;;;;1.90;1.80;;;;;;;14.43;nan;98032.81;5033915;27;97709;-84
2023/11/04 11:01:56;;;;;;;4.10;2.22;;;;;;;14.53;nan;98039.97;5040335;27;98170;-84
2023/11/04 11:04:22;;;;;;;1.20;1.20;;;;;;;14.58;nan;98069.44;5034257;27;96876;-87
2023/11/04 11:06:48;;;;;;;2.30;2.20;;;;;;;14.41;nan;98060.28;5013243;28;96986;-79
2023/11/04 11:09:14;;;;;;;1.88;1.77;;;;;;;14.22;nan;98059.22;5033634;27;97465;-79
2023/11/04 11:12:04;;;;;;;1.27;1.27;;;;;;;13.99;nan;98061.16;5035587;27;100412;-78
2023/11/04 11:14:30;;;;;;;1.70;1.60;;;;;;;13.95;nan;98058.91;5014820;27;97261;-80
2023/11/04 11:17:00;;;;;;;2.40;2.30;;;;;;;13.73;nan;98018.50;5032222;27;96869;-81
2023/11/04 11:19:26;;;;;;;2.60;2.50;;;;;;;13.97;nan;98047.25;5044762;27;98052;-81
2023/11/04 11:21:51;;;;;;;2.90;2.80;;;;;;;13.42;nan;98014.94;5029803;27;97383;-80
2023/11/04 11:24:20;;;;;;;1.80;1.70;;;;;;;13.33;nan;98005.16;5032470;27;96769;-80
2023/11/04 11:26:50;;;;;;;3.33;3.15;;;;;;;13.72;nan;98052.91;5025654;27;97469;-81
2023/11/04 11:29:23;;;;;;;1.80;1.70;;;;;;;13.45;nan;98019.94;5031238;27;98048;-81
2023/11/04 11:31:51;;;;;;;1.02;1.02;;;;;;;13.50;nan;98053.84;5020068;27;99071;-81
2023/11/04 11:34:18;;;;;;;0.50;0.50;;;;;;;13.38;nan;98060.09;5032407;27;97391;-80
2023/11/04 11:36:49;;;;;;;0.50;0.50;;;;;;;13.35;nan;98056.78;5029855;27;96888;-79
2023/11/04 11:39:15;;;;;;;0.40;0.40;;;;;;;13.15;nan;98004.81;5035138;27;97539;-80
2023/11/04 11:41:43;;;;;;;1.02;1.02;;;;;;;13.56;nan;98029.63;5046241;27;98225;-80
2023/11/04 11:44:11;;;;;;;0.47;0.47;;;;;;;13.64;nan;98035.06;5045434;27;96840;-79
2023/11/04 11:46:36;;;;;;;0.10;0.10;;;;;;;13.42;nan;98048.38;5035369;27;97476;-80
2023/11/04 11:49:04;;;;;;;0.00;0.00;;;;;;;13.29;nan;98027.44;5044616;27;97619;-79